الصفحة الرئيسية
METAR-TAF:

METAR-TAF

مطار :

مطار تشونغتشينغ جيانغبى الدولي

تشونغتشينغ, جمهورية الصين الشعبية

دائرة عرض: 29-31N, خط طول: 106-29E, ارتفاع: 351 متر

مراقبة الطقس الحالي

تاريخ ووقت الإصدار 38 دقيقة قبل الساعة 19:00UTC
ريح 2 عقدةمن اتجاهات متغيرة
درجة الحرارة 13°درجة مئوية
الرطوبة 67%
ضغط 1015 hPa
الرؤية 10 كم أو أكثر
الغيوم لا تقل 1500 م ولا وجود لمزنة ركامية السحاب الأسود

METAR: ZUCK 041900Z VRB01MPS CAVOK 13/07 Q1015 NOSIG

زمن: 03:38 (19:38 UTC)

توقعات

تاريخ ووقت الإصدار 4ساعات و 34 دقيقة قبل الساعة 15:04UTC
التوقعات صالحة من04 الساعة 18 UTC إلى 05 الساعة 18 UTC
ريح 6 عقدة من الشمال
الرؤية: 3500 متر
غيوم متفرقة على ارتفاع 4000 قدم
غشاء
مؤقت
من 04 الساعة 22 UTC إلى 05 الساعة 04 UTC
زخات من الأمطار الخفيفة

TAF: ZUCK 041504Z 0418/0518 01003MPS 3500 BR SCT040 TX14/0507Z TN10/0422Z TEMPO 0422/0504 -SHRA

أرصاد الطقس والتوقعات من أكثر من 4000 مطار (تقارير الطقس للمطار METAR والتنبؤ بالطقس بالمطارTAF).

المحطات المتاحة هي النقط الصفراء والحمراء على الخريطة.

حرك المؤشر فوق النقطة لمعرفة اسم المحطة.

ثم انقر لمعرفة أرصاد وتوقعات الطقس.

لتغيير الخارطة: اضغط على الأزرار الخضراء مع رمز الصليب الأسود للتكبير. على الزر الأخضر مع شرطة للتصغير، أو على الأسهم الخضراء للخرائط المجاورة.


METAR-TAF: